sensor_id;sensor_type;location;lat;lon;timestamp;temperature;humidity
22006;DHT22;11167;46.988;15.470;2022-09-17T00:00:11;17.30;78.50
22006;DHT22;11167;46.988;15.470;2022-09-17T00:02:12;17.30;78.60
22006;DHT22;11167;46.988;15.470;2022-09-17T00:04:13;17.30;78.50
22006;DHT22;11167;46.988;15.470;2022-09-17T00:06:15;17.20;78.50
22006;DHT22;11167;46.988;15.470;2022-09-17T00:08:16;17.20;78.50
22006;DHT22;11167;46.988;15.470;2022-09-17T00:10:18;17.20;78.50
22006;DHT22;11167;46.988;15.470;2022-09-17T00:12:20;17.20;78.50
22006;DHT22;11167;46.988;15.470;2022-09-17T00:14:22;17.20;78.50
22006;DHT22;11167;46.988;15.470;2022-09-17T00:16:30;17.20;78.50
22006;DHT22;11167;46.988;15.470;2022-09-17T00:18:31;17.20;78.50
22006;DHT22;11167;46.988;15.470;2022-09-17T00:20:38;17.20;78.60
22006;DHT22;11167;46.988;15.470;2022-09-17T00:22:39;17.20;78.60
22006;DHT22;11167;46.988;15.470;2022-09-17T00:24:41;17.20;78.60
22006;DHT22;11167;46.988;15.470;2022-09-17T00:27:01;17.20;78.70
22006;DHT22;11167;46.988;15.470;2022-09-17T00:29:03;16.70;78.30
22006;DHT22;11167;46.988;15.470;2022-09-17T00:31:08;17.20;78.60
22006;DHT22;11167;46.988;15.470;2022-09-17T00:33:12;17.20;78.60
22006;DHT22;11167;46.988;15.470;2022-09-17T00:35:14;17.20;78.60
22006;DHT22;11167;46.988;15.470;2022-09-17T00:37:15;17.20;78.60
22006;DHT22;11167;46.988;15.470;2022-09-17T00:39:16;17.20;78.70
22006;DHT22;11167;46.988;15.470;2022-09-17T00:41:18;17.20;78.60
22006;DHT22;11167;46.988;15.470;2022-09-17T00:43:35;17.20;78.60
22006;DHT22;11167;46.988;15.470;2022-09-17T00:45:37;17.20;78.60
22006;DHT22;11167;46.988;15.470;2022-09-17T00:47:44;17.20;78.70
22006;DHT22;11167;46.988;15.470;2022-09-17T00:49:50;17.20;78.70
22006;DHT22;11167;46.988;15.470;2022-09-17T00:51:54;17.20;79.50
22006;DHT22;11167;46.988;15.470;2022-09-17T00:53:57;17.20;79.50
22006;DHT22;11167;46.988;15.470;2022-09-17T00:56:06;17.10;78.70
22006;DHT22;11167;46.988;15.470;2022-09-17T00:58:10;17.10;78.60
22006;DHT22;11167;46.988;15.470;2022-09-17T01:00:13;17.20;78.70
22006;DHT22;11167;46.988;15.470;2022-09-17T01:02:16;17.10;78.70
22006;DHT22;11167;46.988;15.470;2022-09-17T01:04:19;17.10;78.70
22006;DHT22;11167;46.988;15.470;2022-09-17T01:06:31;17.10;78.70
22006;DHT22;11167;46.988;15.470;2022-09-17T01:13:16;17.10;78.60
22006;DHT22;11167;46.988;15.470;2022-09-17T01:20:17;17.10;78.80
22006;DHT22;11167;46.988;15.470;2022-09-17T01:27:21;17.10;78.80
22006;DHT22;11167;46.988;15.470;2022-09-17T01:31:51;17.00;78.80
22006;DHT22;11167;46.988;15.470;2022-09-17T01:34:19;17.00;78.80
22006;DHT22;11167;46.988;15.470;2022-09-17T01:36:43;17.00;78.80
22006;DHT22;11167;46.988;15.470;2022-09-17T01:39:04;17.00;78.80
22006;DHT22;11167;46.988;15.470;2022-09-17T01:41:21;17.00;78.80
22006;DHT22;11167;46.988;15.470;2022-09-17T01:43:37;17.00;78.80
22006;DHT22;11167;46.988;15.470;2022-09-17T01:50:15;17.00;79.00
22006;DHT22;11167;46.988;15.470;2022-09-17T01:52:18;17.00;79.00
22006;DHT22;11167;46.988;15.470;2022-09-17T01:54:33;17.00;78.90
22006;DHT22;11167;46.988;15.470;2022-09-17T01:56:47;17.00;78.90
22006;DHT22;11167;46.988;15.470;2022-09-17T01:58:56;17.00;79.00
22006;DHT22;11167;46.988;15.470;2022-09-17T02:00:58;17.00;78.90
22006;DHT22;11167;46.988;15.470;2022-09-17T02:03:14;17.00;79.00
22006;DHT22;11167;46.988;15.470;2022-09-17T02:05:36;17.00;79.00
22006;DHT22;11167;46.988;15.470;2022-09-17T02:07:40;17.00;78.90
22006;DHT22;11167;46.988;15.470;2022-09-17T02:09:45;17.00;79.00
22006;DHT22;11167;46.988;15.470;2022-09-17T02:11:50;17.00;79.00
22006;DHT22;11167;46.988;15.470;2022-09-17T02:16:09;17.00;79.00
22006;DHT22;11167;46.988;15.470;2022-09-17T02:20:17;17.00;79.60
22006;DHT22;11167;46.988;15.470;2022-09-17T02:22:27;17.00;79.00
22006;DHT22;11167;46.988;15.470;2022-09-17T02:29:31;17.00;79.00
22006;DHT22;11167;46.988;15.470;2022-09-17T02:31:33;17.00;79.00
22006;DHT22;11167;46.988;15.470;2022-09-17T02:33:36;16.90;79.10
22006;DHT22;11167;46.988;15.470;2022-09-17T02:35:38;16.90;79.00
22006;DHT22;11167;46.988;15.470;2022-09-17T02:37:43;17.00;79.10
22006;DHT22;11167;46.988;15.470;2022-09-17T02:39:45;16.90;79.00
22006;DHT22;11167;46.988;15.470;2022-09-17T02:44:32;16.90;79.00
22006;DHT22;11167;46.988;15.470;2022-09-17T02:58:33;16.90;79.20
22006;DHT22;11167;46.988;15.470;2022-09-17T03:00:35;16.90;79.20
22006;DHT22;11167;46.988;15.470;2022-09-17T03:02:49;16.90;79.20
22006;DHT22;11167;46.988;15.470;2022-09-17T03:04:48;16.90;79.20
22006;DHT22;11167;46.988;15.470;2022-09-17T03:06:51;16.90;79.10
22006;DHT22;11167;46.988;15.470;2022-09-17T03:08:53;16.90;79.10
22006;DHT22;11167;46.988;15.470;2022-09-17T03:10:56;16.90;79.20
22006;DHT22;11167;46.988;15.470;2022-09-17T03:12:57;16.90;79.20
22006;DHT22;11167;46.988;15.470;2022-09-17T03:14:59;16.90;79.20
22006;DHT22;11167;46.988;15.470;2022-09-17T03:17:00;16.90;79.20
22006;DHT22;11167;46.988;15.470;2022-09-17T03:19:01;16.90;79.10
22006;DHT22;11167;46.988;15.470;2022-09-17T03:21:03;16.90;79.20
22006;DHT22;11167;46.988;15.470;2022-09-17T03:23:04;16.90;79.20
22006;DHT22;11167;46.988;15.470;2022-09-17T03:25:11;16.90;79.20
22006;DHT22;11167;46.988;15.470;2022-09-17T03:27:23;16.90;79.10
22006;DHT22;11167;46.988;15.470;2022-09-17T03:29:24;16.90;79.20
22006;DHT22;11167;46.988;15.470;2022-09-17T03:31:25;16.90;79.10
22006;DHT22;11167;46.988;15.470;2022-09-17T03:33:27;16.90;79.20
22006;DHT22;11167;46.988;15.470;2022-09-17T03:35:28;16.90;79.20
22006;DHT22;11167;46.988;15.470;2022-09-17T03:37:30;16.90;79.20
22006;DHT22;11167;46.988;15.470;2022-09-17T03:39:31;16.90;79.20
22006;DHT22;11167;46.988;15.470;2022-09-17T03:41:32;16.90;79.20
22006;DHT22;11167;46.988;15.470;2022-09-17T03:43:34;16.90;79.30
22006;DHT22;11167;46.988;15.470;2022-09-17T03:45:35;16.90;79.20
22006;DHT22;11167;46.988;15.470;2022-09-17T03:47:36;16.90;79.20
22006;DHT22;11167;46.988;15.470;2022-09-17T03:49:37;16.90;79.20
22006;DHT22;11167;46.988;15.470;2022-09-17T03:51:39;17.40;79.50
22006;DHT22;11167;46.988;15.470;2022-09-17T03:53:41;16.90;79.20
22006;DHT22;11167;46.988;15.470;2022-09-17T03:55:43;16.90;79.20
22006;DHT22;11167;46.988;15.470;2022-09-17T03:57:44;16.90;79.20
22006;DHT22;11167;46.988;15.470;2022-09-17T03:59:45;16.90;79.20
22006;DHT22;11167;46.988;15.470;2022-09-17T04:01:46;16.90;79.20
22006;DHT22;11167;46.988;15.470;2022-09-17T04:03:47;16.90;79.30
22006;DHT22;11167;46.988;15.470;2022-09-17T04:05:48;16.90;79.20
22006;DHT22;11167;46.988;15.470;2022-09-17T04:07:49;16.90;79.30
22006;DHT22;11167;46.988;15.470;2022-09-17T04:09:51;16.90;79.30
22006;DHT22;11167;46.988;15.470;2022-09-17T04:11:52;16.90;79.30
22006;DHT22;11167;46.988;15.470;2022-09-17T04:13:53;16.90;79.30
22006;DHT22;11167;46.988;15.470;2022-09-17T04:15:54;16.90;79.30
22006;DHT22;11167;46.988;15.470;2022-09-17T04:17:56;16.90;79.30
22006;DHT22;11167;46.988;15.470;2022-09-17T04:19:59;16.90;79.30
22006;DHT22;11167;46.988;15.470;2022-09-17T04:22:01;16.90;79.30
22006;DHT22;11167;46.988;15.470;2022-09-17T04:24:02;16.90;79.30
22006;DHT22;11167;46.988;15.470;2022-09-17T04:26:04;16.90;79.40
22006;DHT22;11167;46.988;15.470;2022-09-17T04:28:09;16.80;79.20
22006;DHT22;11167;46.988;15.470;2022-09-17T04:30:11;16.90;79.30
22006;DHT22;11167;46.988;15.470;2022-09-17T04:32:12;16.80;79.20
22006;DHT22;11167;46.988;15.470;2022-09-17T04:34:13;16.80;79.30
22006;DHT22;11167;46.988;15.470;2022-09-17T04:36:15;16.80;79.30
22006;DHT22;11167;46.988;15.470;2022-09-17T04:38:16;16.80;79.30
22006;DHT22;11167;46.988;15.470;2022-09-17T04:40:19;16.80;79.30
22006;DHT22;11167;46.988;15.470;2022-09-17T04:42:20;16.80;79.30
22006;DHT22;11167;46.988;15.470;2022-09-17T04:44:21;16.80;79.30
22006;DHT22;11167;46.988;15.470;2022-09-17T04:46:23;16.80;79.40
22006;DHT22;11167;46.988;15.470;2022-09-17T04:48:24;16.80;79.40
22006;DHT22;11167;46.988;15.470;2022-09-17T04:50:25;16.80;79.40
22006;DHT22;11167;46.988;15.470;2022-09-17T04:52:26;16.80;79.40
22006;DHT22;11167;46.988;15.470;2022-09-17T04:54:28;16.80;79.30
22006;DHT22;11167;46.988;15.470;2022-09-17T04:56:29;16.80;80.30
22006;DHT22;11167;46.988;15.470;2022-09-17T04:58:30;16.80;79.40
22006;DHT22;11167;46.988;15.470;2022-09-17T05:00:32;16.80;80.30
22006;DHT22;11167;46.988;15.470;2022-09-17T05:02:35;16.80;79.40
22006;DHT22;11167;46.988;15.470;2022-09-17T05:04:36;16.80;79.40
22006;DHT22;11167;46.988;15.470;2022-09-17T05:06:37;16.80;79.40
22006;DHT22;11167;46.988;15.470;2022-09-17T05:08:38;16.80;79.40
22006;DHT22;11167;46.988;15.470;2022-09-17T05:13:26;16.80;79.40
22006;DHT22;11167;46.988;15.470;2022-09-17T05:15:27;16.80;79.50
22006;DHT22;11167;46.988;15.470;2022-09-17T05:17:29;16.80;79.40
22006;DHT22;11167;46.988;15.470;2022-09-17T05:19:30;16.80;79.40
22006;DHT22;11167;46.988;15.470;2022-09-17T05:21:31;16.80;79.40
22006;DHT22;11167;46.988;15.470;2022-09-17T05:23:32;16.80;79.40
22006;DHT22;11167;46.988;15.470;2022-09-17T05:25:33;16.80;79.50
22006;DHT22;11167;46.988;15.470;2022-09-17T05:27:35;16.80;79.50
22006;DHT22;11167;46.988;15.470;2022-09-17T05:29:36;16.80;79.50
22006;DHT22;11167;46.988;15.470;2022-09-17T05:31:37;16.80;79.50
22006;DHT22;11167;46.988;15.470;2022-09-17T05:33:38;16.80;79.50
22006;DHT22;11167;46.988;15.470;2022-09-17T05:35:39;16.80;79.50
22006;DHT22;11167;46.988;15.470;2022-09-17T05:37:41;16.80;79.50
22006;DHT22;11167;46.988;15.470;2022-09-17T05:39:42;16.80;79.50
22006;DHT22;11167;46.988;15.470;2022-09-17T05:41:43;16.80;79.50
22006;DHT22;11167;46.988;15.470;2022-09-17T05:43:45;16.80;79.50
22006;DHT22;11167;46.988;15.470;2022-09-17T05:45:46;16.80;79.50
22006;DHT22;11167;46.988;15.470;2022-09-17T05:47:47;16.80;79.50
22006;DHT22;11167;46.988;15.470;2022-09-17T05:49:50;16.80;79.50
22006;DHT22;11167;46.988;15.470;2022-09-17T05:51:52;16.80;79.50
22006;DHT22;11167;46.988;15.470;2022-09-17T05:53:53;16.80;79.60
22006;DHT22;11167;46.988;15.470;2022-09-17T05:55:57;16.80;79.60
22006;DHT22;11167;46.988;15.470;2022-09-17T05:57:58;16.80;79.60
22006;DHT22;11167;46.988;15.470;2022-09-17T06:00:03;16.80;79.60
22006;DHT22;11167;46.988;15.470;2022-09-17T06:02:05;16.80;79.60
22006;DHT22;11167;46.988;15.470;2022-09-17T06:04:08;16.80;79.60
22006;DHT22;11167;46.988;15.470;2022-09-17T06:06:09;16.80;79.60
22006;DHT22;11167;46.988;15.470;2022-09-17T06:08:10;16.80;79.60
22006;DHT22;11167;46.988;15.470;2022-09-17T06:10:11;16.90;79.60
22006;DHT22;11167;46.988;15.470;2022-09-17T06:12:12;16.80;79.60
22006;DHT22;11167;46.988;15.470;2022-09-17T06:14:14;16.80;79.60
22006;DHT22;11167;46.988;15.470;2022-09-17T06:16:16;16.80;79.60
22006;DHT22;11167;46.988;15.470;2022-09-17T06:18:17;16.70;79.50
22006;DHT22;11167;46.988;15.470;2022-09-17T06:20:20;16.70;79.60
22006;DHT22;11167;46.988;15.470;2022-09-17T06:22:21;16.70;79.60
22006;DHT22;11167;46.988;15.470;2022-09-17T06:24:23;16.70;79.60
22006;DHT22;11167;46.988;15.470;2022-09-17T06:26:24;16.70;79.60
22006;DHT22;11167;46.988;15.470;2022-09-17T06:28:26;16.70;79.60
22006;DHT22;11167;46.988;15.470;2022-09-17T06:30:27;16.70;79.60
22006;DHT22;11167;46.988;15.470;2022-09-17T06:32:28;16.70;79.60
22006;DHT22;11167;46.988;15.470;2022-09-17T06:34:30;16.70;79.60
22006;DHT22;11167;46.988;15.470;2022-09-17T06:36:32;16.70;79.60
22006;DHT22;11167;46.988;15.470;2022-09-17T06:38:34;16.70;79.60
22006;DHT22;11167;46.988;15.470;2022-09-17T06:40:36;16.70;79.60
22006;DHT22;11167;46.988;15.470;2022-09-17T06:42:37;16.70;79.60
22006;DHT22;11167;46.988;15.470;2022-09-17T06:44:38;16.70;79.60
22006;DHT22;11167;46.988;15.470;2022-09-17T06:46:40;16.70;79.60
22006;DHT22;11167;46.988;15.470;2022-09-17T06:48:43;16.70;79.60
22006;DHT22;11167;46.988;15.470;2022-09-17T06:50:44;16.70;79.60
22006;DHT22;11167;46.988;15.470;2022-09-17T06:52:50;16.70;79.70
22006;DHT22;11167;46.988;15.470;2022-09-17T06:54:53;16.70;79.60
22006;DHT22;11167;46.988;15.470;2022-09-17T06:56:56;16.70;79.60
22006;DHT22;11167;46.988;15.470;2022-09-17T06:58:58;16.70;79.70
22006;DHT22;11167;46.988;15.470;2022-09-17T07:01:01;16.70;79.60
22006;DHT22;11167;46.988;15.470;2022-09-17T07:03:03;16.70;80.10
22006;DHT22;11167;46.988;15.470;2022-09-17T07:05:04;16.70;79.70
22006;DHT22;11167;46.988;15.470;2022-09-17T07:07:06;16.70;79.70
22006;DHT22;11167;46.988;15.470;2022-09-17T07:09:07;16.70;79.70
22006;DHT22;11167;46.988;15.470;2022-09-17T07:11:09;16.70;79.70
22006;DHT22;11167;46.988;15.470;2022-09-17T07:13:16;16.70;79.70
22006;DHT22;11167;46.988;15.470;2022-09-17T07:15:17;16.70;79.70
22006;DHT22;11167;46.988;15.470;2022-09-17T07:17:21;16.60;79.60
22006;DHT22;11167;46.988;15.470;2022-09-17T07:19:23;16.70;79.70
22006;DHT22;11167;46.988;15.470;2022-09-17T07:21:25;16.60;79.70
22006;DHT22;11167;46.988;15.470;2022-09-17T07:23:28;16.60;79.70
22006;DHT22;11167;46.988;15.470;2022-09-17T07:25:30;16.60;79.70
22006;DHT22;11167;46.988;15.470;2022-09-17T07:27:31;16.60;79.60
22006;DHT22;11167;46.988;15.470;2022-09-17T07:29:32;16.60;79.80
22006;DHT22;11167;46.988;15.470;2022-09-17T07:31:33;16.60;79.80
22006;DHT22;11167;46.988;15.470;2022-09-17T07:33:35;16.60;79.80
22006;DHT22;11167;46.988;15.470;2022-09-17T07:35:38;16.60;79.80
22006;DHT22;11167;46.988;15.470;2022-09-17T07:37:39;16.60;79.80
22006;DHT22;11167;46.988;15.470;2022-09-17T07:39:41;16.60;79.80
22006;DHT22;11167;46.988;15.470;2022-09-17T07:41:42;16.60;79.80
22006;DHT22;11167;46.988;15.470;2022-09-17T07:43:43;16.60;79.80
22006;DHT22;11167;46.988;15.470;2022-09-17T07:45:45;16.60;79.80
22006;DHT22;11167;46.988;15.470;2022-09-17T07:47:46;16.60;79.80
22006;DHT22;11167;46.988;15.470;2022-09-17T07:49:47;16.60;79.80
22006;DHT22;11167;46.988;15.470;2022-09-17T07:51:48;16.60;79.80
22006;DHT22;11167;46.988;15.470;2022-09-17T07:53:53;16.60;79.90
22006;DHT22;11167;46.988;15.470;2022-09-17T07:55:57;16.60;79.80
22006;DHT22;11167;46.988;15.470;2022-09-17T07:57:58;16.60;79.80
22006;DHT22;11167;46.988;15.470;2022-09-17T08:00:00;16.60;79.80
22006;DHT22;11167;46.988;15.470;2022-09-17T08:02:01;16.60;79.80
22006;DHT22;11167;46.988;15.470;2022-09-17T08:04:06;16.60;79.80
22006;DHT22;11167;46.988;15.470;2022-09-17T08:06:14;16.60;79.80
22006;DHT22;11167;46.988;15.470;2022-09-17T08:08:17;16.60;79.90
22006;DHT22;11167;46.988;15.470;2022-09-17T08:10:20;16.50;79.80
22006;DHT22;11167;46.988;15.470;2022-09-17T08:12:24;16.50;79.80
22006;DHT22;11167;46.988;15.470;2022-09-17T08:14:32;16.50;79.80
22006;DHT22;11167;46.988;15.470;2022-09-17T08:16:35;16.50;79.80
22006;DHT22;11167;46.988;15.470;2022-09-17T08:18:38;16.50;79.80
22006;DHT22;11167;46.988;15.470;2022-09-17T08:20:41;16.50;79.80
22006;DHT22;11167;46.988;15.470;2022-09-17T08:22:42;16.60;79.90
22006;DHT22;11167;46.988;15.470;2022-09-17T08:24:45;16.50;79.90
22006;DHT22;11167;46.988;15.470;2022-09-17T08:26:47;16.50;79.80
22006;DHT22;11167;46.988;15.470;2022-09-17T08:28:52;16.50;79.80
22006;DHT22;11167;46.988;15.470;2022-09-17T08:31:06;16.50;79.80
22006;DHT22;11167;46.988;15.470;2022-09-17T08:33:09;16.50;79.80
22006;DHT22;11167;46.988;15.470;2022-09-17T08:35:12;16.50;79.80
22006;DHT22;11167;46.988;15.470;2022-09-17T08:37:13;16.50;79.90
22006;DHT22;11167;46.988;15.470;2022-09-17T08:39:14;16.50;79.90
22006;DHT22;11167;46.988;15.470;2022-09-17T08:41:24;16.50;80.00
22006;DHT22;11167;46.988;15.470;2022-09-17T08:43:27;16.50;80.70
22006;DHT22;11167;46.988;15.470;2022-09-17T08:45:31;16.50;79.90
22006;DHT22;11167;46.988;15.470;2022-09-17T08:47:38;16.50;79.90
22006;DHT22;11167;46.988;15.470;2022-09-17T08:52:00;16.50;79.80
22006;DHT22;11167;46.988;15.470;2022-09-17T08:54:24;16.50;80.00
22006;DHT22;11167;46.988;15.470;2022-09-17T08:56:21;16.50;79.80
22006;DHT22;11167;46.988;15.470;2022-09-17T09:00:52;16.40;79.90
22006;DHT22;11167;46.988;15.470;2022-09-17T09:05:19;16.40;79.90
22006;DHT22;11167;46.988;15.470;2022-09-17T09:07:40;16.40;79.90
22006;DHT22;11167;46.988;15.470;2022-09-17T09:09:36;16.40;79.90
22006;DHT22;11167;46.988;15.470;2022-09-17T09:11:38;16.40;79.90
22006;DHT22;11167;46.988;15.470;2022-09-17T09:13:46;16.40;79.90
22006;DHT22;11167;46.988;15.470;2022-09-17T09:18:20;16.40;80.00
22006;DHT22;11167;46.988;15.470;2022-09-17T09:20:20;16.40;80.00
22006;DHT22;11167;46.988;15.470;2022-09-17T09:22:39;16.40;80.00
22006;DHT22;11167;46.988;15.470;2022-09-17T09:25:02;16.40;80.00
22006;DHT22;11167;46.988;15.470;2022-09-17T09:27:16;16.40;80.10
22006;DHT22;11167;46.988;15.470;2022-09-17T09:32:00;16.40;80.00
22006;DHT22;11167;46.988;15.470;2022-09-17T09:34:01;16.40;80.10
22006;DHT22;11167;46.988;15.470;2022-09-17T09:36:10;16.30;80.00
22006;DHT22;11167;46.988;15.470;2022-09-17T09:43:18;16.40;80.00
22006;DHT22;11167;46.988;15.470;2022-09-17T09:48:06;16.30;80.00
22006;DHT22;11167;46.988;15.470;2022-09-17T09:52:27;16.30;80.80
22006;DHT22;11167;46.988;15.470;2022-09-17T09:56:56;16.30;80.10
22006;DHT22;11167;46.988;15.470;2022-09-17T09:58:58;16.40;80.20
22006;DHT22;11167;46.988;15.470;2022-09-17T10:01:00;16.30;80.00
22006;DHT22;11167;46.988;15.470;2022-09-17T10:05:12;16.40;80.10
22006;DHT22;11167;46.988;15.470;2022-09-17T10:07:14;16.40;80.10
22006;DHT22;11167;46.988;15.470;2022-09-17T10:09:16;16.40;80.10
22006;DHT22;11167;46.988;15.470;2022-09-17T10:11:23;16.40;80.10
22006;DHT22;11167;46.988;15.470;2022-09-17T10:13:25;16.40;80.10
22006;DHT22;11167;46.988;15.470;2022-09-17T10:15:27;16.40;80.10
22006;DHT22;11167;46.988;15.470;2022-09-17T10:17:28;16.40;80.10
22006;DHT22;11167;46.988;15.470;2022-09-17T10:19:29;16.40;80.10
22006;DHT22;11167;46.988;15.470;2022-09-17T10:21:39;16.40;80.10
22006;DHT22;11167;46.988;15.470;2022-09-17T10:23:42;15.70;79.70
22006;DHT22;11167;46.988;15.470;2022-09-17T10:25:44;16.40;80.10
22006;DHT22;11167;46.988;15.470;2022-09-17T10:27:46;16.40;80.10
22006;DHT22;11167;46.988;15.470;2022-09-17T10:30:00;16.40;80.10
22006;DHT22;11167;46.988;15.470;2022-09-17T10:31:59;16.40;80.10
22006;DHT22;11167;46.988;15.470;2022-09-17T10:34:01;16.40;80.10
22006;DHT22;11167;46.988;15.470;2022-09-17T10:36:11;16.40;80.10
22006;DHT22;11167;46.988;15.470;2022-09-17T10:38:25;16.50;80.10
22006;DHT22;11167;46.988;15.470;2022-09-17T10:40:24;16.40;80.10
22006;DHT22;11167;46.988;15.470;2022-09-17T10:42:32;16.50;80.20
22006;DHT22;11167;46.988;15.470;2022-09-17T10:44:35;16.50;80.10
22006;DHT22;11167;46.988;15.470;2022-09-17T10:46:36;16.50;80.20
22006;DHT22;11167;46.988;15.470;2022-09-17T10:48:44;16.50;80.20
22006;DHT22;11167;46.988;15.470;2022-09-17T10:50:48;16.50;80.20
22006;DHT22;11167;46.988;15.470;2022-09-17T10:53:02;16.50;80.20
22006;DHT22;11167;46.988;15.470;2022-09-17T10:55:17;16.50;80.20
22006;DHT22;11167;46.988;15.470;2022-09-17T10:57:26;16.50;80.20
22006;DHT22;11167;46.988;15.470;2022-09-17T10:59:35;16.50;80.20
22006;DHT22;11167;46.988;15.470;2022-09-17T11:18:29;16.50;80.30
22006;DHT22;11167;46.988;15.470;2022-09-17T11:36:19;16.50;80.30
22006;DHT22;11167;46.988;15.470;2022-09-17T11:38:48;16.50;80.30
22006;DHT22;11167;46.988;15.470;2022-09-17T11:43:03;16.50;80.30
22006;DHT22;11167;46.988;15.470;2022-09-17T11:47:28;16.50;80.30
22006;DHT22;11167;46.988;15.470;2022-09-17T11:49:38;16.50;80.30
22006;DHT22;11167;46.988;15.470;2022-09-17T11:51:53;16.50;80.30
22006;DHT22;11167;46.988;15.470;2022-09-17T11:54:05;16.50;80.20
22006;DHT22;11167;46.988;15.470;2022-09-17T11:58:33;16.60;80.30
22006;DHT22;11167;46.988;15.470;2022-09-17T12:00:39;16.60;80.30
22006;DHT22;11167;46.988;15.470;2022-09-17T12:03:00;16.50;80.20
22006;DHT22;11167;46.988;15.470;2022-09-17T12:05:04;16.60;80.30
22006;DHT22;11167;46.988;15.470;2022-09-17T12:09:32;16.60;80.30
22006;DHT22;11167;46.988;15.470;2022-09-17T12:11:48;16.60;80.30
22006;DHT22;11167;46.988;15.470;2022-09-17T12:13:53;16.60;80.30
22006;DHT22;11167;46.988;15.470;2022-09-17T12:16:01;16.60;80.10
22006;DHT22;11167;46.988;15.470;2022-09-17T12:20:26;16.60;80.40
22006;DHT22;11167;46.988;15.470;2022-09-17T12:22:22;16.60;80.30
22006;DHT22;11167;46.988;15.470;2022-09-17T12:24:29;16.60;80.30
22006;DHT22;11167;46.988;15.470;2022-09-17T12:29:21;16.60;80.30
22006;DHT22;11167;46.988;15.470;2022-09-17T12:33:41;16.60;80.30
22006;DHT22;11167;46.988;15.470;2022-09-17T12:36:00;16.60;80.30
22006;DHT22;11167;46.988;15.470;2022-09-17T12:44:55;16.60;80.30
22006;DHT22;11167;46.988;15.470;2022-09-17T12:59:25;16.60;80.30
22006;DHT22;11167;46.988;15.470;2022-09-17T13:04:17;16.60;80.30
22006;DHT22;11167;46.988;15.470;2022-09-17T13:06:29;16.60;80.30
22006;DHT22;11167;46.988;15.470;2022-09-17T13:13:42;16.60;80.30
22006;DHT22;11167;46.988;15.470;2022-09-17T13:15:52;16.60;80.30
22006;DHT22;11167;46.988;15.470;2022-09-17T13:18:21;16.60;80.30
22006;DHT22;11167;46.988;15.470;2022-09-17T13:20:29;16.60;80.30
22006;DHT22;11167;46.988;15.470;2022-09-17T13:22:30;16.60;80.30
22006;DHT22;11167;46.988;15.470;2022-09-17T13:24:33;16.60;80.30
22006;DHT22;11167;46.988;15.470;2022-09-17T13:26:36;16.70;80.30
22006;DHT22;11167;46.988;15.470;2022-09-17T13:28:45;16.60;80.30
22006;DHT22;11167;46.988;15.470;2022-09-17T13:30:58;16.70;80.30
22006;DHT22;11167;46.988;15.470;2022-09-17T13:32:59;16.70;80.30
22006;DHT22;11167;46.988;15.470;2022-09-17T13:37:22;16.60;80.30
22006;DHT22;11167;46.988;15.470;2022-09-17T13:39:45;16.70;80.30
22006;DHT22;11167;46.988;15.470;2022-09-17T13:41:47;16.60;80.20
22006;DHT22;11167;46.988;15.470;2022-09-17T13:43:48;16.60;80.30
22006;DHT22;11167;46.988;15.470;2022-09-17T13:50:32;16.70;80.30
22006;DHT22;11167;46.988;15.470;2022-09-17T13:52:37;16.60;80.20
22006;DHT22;11167;46.988;15.470;2022-09-17T13:54:40;16.60;80.20
22006;DHT22;11167;46.988;15.470;2022-09-17T13:56:44;16.70;80.30
22006;DHT22;11167;46.988;15.470;2022-09-17T13:58:46;16.60;80.20
22006;DHT22;11167;46.988;15.470;2022-09-17T14:02:54;16.70;80.30
22006;DHT22;11167;46.988;15.470;2022-09-17T14:09:33;16.60;80.20
22006;DHT22;11167;46.988;15.470;2022-09-17T14:11:36;16.70;80.30
22006;DHT22;11167;46.988;15.470;2022-09-17T14:13:39;16.70;80.30
22006;DHT22;11167;46.988;15.470;2022-09-17T14:17:51;16.60;80.20
22006;DHT22;11167;46.988;15.470;2022-09-17T14:19:53;16.70;80.30
22006;DHT22;11167;46.988;15.470;2022-09-17T14:21:58;16.60;80.30
22006;DHT22;11167;46.988;15.470;2022-09-17T14:24:02;16.70;80.30
22006;DHT22;11167;46.988;15.470;2022-09-17T14:26:07;16.60;80.20
22006;DHT22;11167;46.988;15.470;2022-09-17T14:28:17;16.70;80.30
22006;DHT22;11167;46.988;15.470;2022-09-17T14:30:30;16.70;80.30
22006;DHT22;11167;46.988;15.470;2022-09-17T14:33:04;16.70;80.30
22006;DHT22;11167;46.988;15.470;2022-09-17T14:35:21;16.60;80.20
22006;DHT22;11167;46.988;15.470;2022-09-17T14:37:19;16.60;80.20
22006;DHT22;11167;46.988;15.470;2022-09-17T14:41:44;16.60;80.30
22006;DHT22;11167;46.988;15.470;2022-09-17T14:44:01;16.60;80.20
22006;DHT22;11167;46.988;15.470;2022-09-17T14:46:02;16.60;80.30
22006;DHT22;11167;46.988;15.470;2022-09-17T14:48:23;16.60;80.30
22006;DHT22;11167;46.988;15.470;2022-09-17T14:50:25;16.60;80.30
22006;DHT22;11167;46.988;15.470;2022-09-17T14:52:30;16.60;80.20
22006;DHT22;11167;46.988;15.470;2022-09-17T14:54:32;16.60;80.20
22006;DHT22;11167;46.988;15.470;2022-09-17T14:56:38;16.60;80.30
22006;DHT22;11167;46.988;15.470;2022-09-17T14:58:40;16.60;80.20
22006;DHT22;11167;46.988;15.470;2022-09-17T15:00:49;16.60;80.20
22006;DHT22;11167;46.988;15.470;2022-09-17T15:02:55;16.60;80.20
22006;DHT22;11167;46.988;15.470;2022-09-17T15:04:59;16.60;80.30
22006;DHT22;11167;46.988;15.470;2022-09-17T15:07:08;16.60;80.20
22006;DHT22;11167;46.988;15.470;2022-09-17T15:09:16;16.60;80.20
22006;DHT22;11167;46.988;15.470;2022-09-17T15:11:18;16.60;80.30
22006;DHT22;11167;46.988;15.470;2022-09-17T15:13:25;16.60;80.20
22006;DHT22;11167;46.988;15.470;2022-09-17T15:15:27;16.60;80.20
22006;DHT22;11167;46.988;15.470;2022-09-17T15:17:29;17.30;80.70
22006;DHT22;11167;46.988;15.470;2022-09-17T15:19:38;16.60;80.20
22006;DHT22;11167;46.988;15.470;2022-09-17T15:21:43;16.60;80.20
22006;DHT22;11167;46.988;15.470;2022-09-17T15:23:45;16.60;80.30
22006;DHT22;11167;46.988;15.470;2022-09-17T15:25:47;16.60;80.20
22006;DHT22;11167;46.988;15.470;2022-09-17T15:27:55;16.60;80.20
22006;DHT22;11167;46.988;15.470;2022-09-17T15:30:14;16.60;80.20
22006;DHT22;11167;46.988;15.470;2022-09-17T15:32:16;16.60;80.30
22006;DHT22;11167;46.988;15.470;2022-09-17T15:34:17;16.60;80.20
22006;DHT22;11167;46.988;15.470;2022-09-17T15:36:26;16.60;80.20
22006;DHT22;11167;46.988;15.470;2022-09-17T15:38:30;16.60;80.20
22006;DHT22;11167;46.988;15.470;2022-09-17T15:40:38;16.60;80.30
22006;DHT22;11167;46.988;15.470;2022-09-17T15:42:48;16.60;80.20